AFR142 LFPG-EGCC
Flight info
| Callsign | AFR142 |
|---|---|
| Flight time | 1h 9m |
| Altitude | 34000 |
| Route | ATREX DCT VESAN DCT RATUK DCT SOVAT L613 SANDY UN57 WELIN T420 ELVOS |
| Aircraft | A320/M-SDE3FGHIRWY/LB1 |
Departure
| Time | 2026-05-03 21:46 |
|---|---|
| Airport | Charles de Gaulle International Airport (LFPG) |
Arrival
| Time | 2026-05-03 22:55 |
|---|---|
| Airport | Manchester Airport (EGCC) |
| Time | Latitude | Longitude | Altitude | Speed | Heading |
|---|---|---|---|---|---|
| 2026-05-03 21:19 | 49.00583 | 2.57356 | 354 ft | 0 kts | 89° |
| 2026-05-03 21:25 | 49.00583 | 2.57355 | 353 ft | 0 kts | 89° |
| 2026-05-03 21:25 | 49.00583 | 2.57356 | 354 ft | 0 kts | 89° |
| 2026-05-03 21:30 | 49.00583 | 2.57352 | 361 ft | 3 kts | 89° |
| 2026-05-03 21:30 | 49.00582 | 2.57312 | 360 ft | 4 kts | 82° |
| 2026-05-03 21:31 | 49.00576 | 2.57273 | 363 ft | 4 kts | 61° |
| 2026-05-03 21:31 | 49.00561 | 2.57249 | 363 ft | 2 kts | 356° |
| 2026-05-03 21:31 | 49.00559 | 2.57249 | 363 ft | 0 kts | 355° |
| 2026-05-03 21:36 | 49.00574 | 2.57247 | 363 ft | 6 kts | 354° |
| 2026-05-03 21:36 | 49.00650 | 2.57233 | 354 ft | 15 kts | 356° |
| 2026-05-03 21:36 | 49.00715 | 2.57228 | 365 ft | 5 kts | 356° |
| 2026-05-03 21:36 | 49.00801 | 2.57211 | 364 ft | 19 kts | 351° |
| 2026-05-03 21:37 | 49.00868 | 2.57326 | 364 ft | 18 kts | 86° |
| 2026-05-03 21:37 | 49.00873 | 2.57439 | 360 ft | 13 kts | 84° |
| 2026-05-03 21:37 | 49.00881 | 2.57603 | 365 ft | 16 kts | 86° |
| 2026-05-03 21:37 | 49.00894 | 2.57798 | 359 ft | 21 kts | 84° |
| 2026-05-03 21:38 | 49.00900 | 2.57916 | 356 ft | 6 kts | 85° |
| 2026-05-03 21:38 | 49.00900 | 2.57921 | 356 ft | 0 kts | 84° |
| 2026-05-03 21:38 | 49.00900 | 2.57922 | 356 ft | 0 kts | 84° |
| 2026-05-03 21:39 | 49.00903 | 2.57967 | 355 ft | 8 kts | 86° |
| 2026-05-03 21:40 | 49.00908 | 2.58093 | 353 ft | 16 kts | 84° |
| 2026-05-03 21:40 | 49.00989 | 2.58224 | 332 ft | 27 kts | 350° |
| 2026-05-03 21:40 | 49.01175 | 2.58208 | 339 ft | 28 kts | 356° |
| 2026-05-03 21:40 | 49.01377 | 2.58186 | 352 ft | 30 kts | 355° |
| 2026-05-03 21:41 | 49.01579 | 2.58160 | 357 ft | 28 kts | 355° |
| 2026-05-03 21:41 | 49.01768 | 2.58135 | 364 ft | 27 kts | 355° |
| 2026-05-03 21:41 | 49.01954 | 2.58066 | 363 ft | 28 kts | 331° |
| 2026-05-03 21:41 | 49.02075 | 2.57849 | 362 ft | 28 kts | 288° |
| 2026-05-03 21:42 | 49.02083 | 2.57574 | 364 ft | 19 kts | 265° |
| 2026-05-03 21:42 | 49.02073 | 2.57363 | 362 ft | 21 kts | 268° |
| 2026-05-03 21:42 | 49.02071 | 2.57141 | 364 ft | 21 kts | 290° |
| 2026-05-03 21:42 | 49.02189 | 2.57070 | 362 ft | 18 kts | 356° |
| 2026-05-03 21:43 | 49.02275 | 2.57059 | 362 ft | 0 kts | 354° |
| 2026-05-03 21:44 | 49.02306 | 2.57048 | 363 ft | 13 kts | 339° |
| 2026-05-03 21:44 | 49.02356 | 2.56893 | 365 ft | 23 kts | 247° |
| 2026-05-03 21:45 | 49.02346 | 2.56630 | 362 ft | 35 kts | 264° |
| 2026-05-03 21:45 | 49.02306 | 2.55914 | 374 ft | 99 kts | 265° |
| 2026-05-03 21:45 | 49.02237 | 2.54601 | 371 ft | 149 kts | 266° |
| 2026-05-03 21:45 | 49.02142 | 2.52912 | 800 ft | 153 kts | 262° |
| 2026-05-03 21:46 | 49.02039 | 2.51368 | 1530 ft | 147 kts | 262° |
| 2026-05-03 21:46 | 49.01939 | 2.49733 | 1898 ft | 165 kts | 263° |
| 2026-05-03 21:46 | 49.01839 | 2.47862 | 2167 ft | 189 kts | 264° |
| 2026-05-03 21:46 | 49.01727 | 2.45749 | 2493 ft | 210 kts | 264° |
| 2026-05-03 21:47 | 49.01761 | 2.43420 | 2890 ft | 231 kts | 282° |
| 2026-05-03 21:47 | 49.02441 | 2.41198 | 3553 ft | 243 kts | 305° |
| 2026-05-03 21:47 | 49.03800 | 2.39435 | 4116 ft | 264 kts | 326° |
| 2026-05-03 21:47 | 49.05362 | 2.37985 | 4944 ft | 269 kts | 326° |
| 2026-05-03 21:48 | 49.06977 | 2.36475 | 5808 ft | 273 kts | 326° |
| 2026-05-03 21:48 | 49.08609 | 2.34940 | 6657 ft | 278 kts | 325° |
| 2026-05-03 21:48 | 49.10259 | 2.33377 | 7475 ft | 281 kts | 325° |
| 2026-05-03 21:48 | 49.11937 | 2.31793 | 8313 ft | 285 kts | 328° |
| 2026-05-03 21:49 | 49.13835 | 2.30828 | 9100 ft | 296 kts | 353° |
| 2026-05-03 21:49 | 49.15917 | 2.30928 | 9907 ft | 301 kts | 2° |
| 2026-05-03 21:49 | 49.18051 | 2.31147 | 10374 ft | 317 kts | 2° |
| 2026-05-03 21:49 | 49.20339 | 2.31378 | 10656 ft | 338 kts | 2° |
| 2026-05-03 21:50 | 49.22729 | 2.31614 | 11250 ft | 346 kts | 2° |
| 2026-05-03 21:50 | 49.25149 | 2.31848 | 11939 ft | 352 kts | 1° |
| 2026-05-03 21:50 | 49.27605 | 2.32079 | 12650 ft | 356 kts | 1° |
| 2026-05-03 21:50 | 49.30066 | 2.32309 | 13341 ft | 361 kts | 1° |
| 2026-05-03 21:51 | 49.32585 | 2.32548 | 13998 ft | 365 kts | 1° |
| 2026-05-03 21:51 | 49.35131 | 2.32788 | 14620 ft | 369 kts | 1° |
| 2026-05-03 21:51 | 49.37711 | 2.33025 | 15239 ft | 373 kts | 1° |
| 2026-05-03 21:51 | 49.40328 | 2.33264 | 15847 ft | 378 kts | 1° |
| 2026-05-03 21:52 | 49.42963 | 2.33507 | 16458 ft | 381 kts | 1° |
| 2026-05-03 21:52 | 49.45633 | 2.33755 | 17063 ft | 385 kts | 1° |
| 2026-05-03 21:52 | 49.48325 | 2.34008 | 17669 ft | 389 kts | 1° |
| 2026-05-03 21:52 | 49.51041 | 2.34264 | 18263 ft | 393 kts | 1° |
| 2026-05-03 21:53 | 49.53791 | 2.34525 | 18785 ft | 397 kts | 1° |
| 2026-05-03 21:53 | 49.56531 | 2.34786 | 19291 ft | 401 kts | 1° |
| 2026-05-03 21:53 | 49.59327 | 2.35050 | 19809 ft | 404 kts | 0° |
| 2026-05-03 21:53 | 49.62151 | 2.35315 | 20328 ft | 408 kts | 0° |
| 2026-05-03 21:54 | 49.65007 | 2.35584 | 20851 ft | 411 kts | 0° |
| 2026-05-03 21:54 | 49.67876 | 2.35852 | 21367 ft | 415 kts | 0° |
| 2026-05-03 21:54 | 49.70779 | 2.36128 | 21885 ft | 418 kts | 0° |
| 2026-05-03 21:54 | 49.73701 | 2.36406 | 22401 ft | 422 kts | 0° |
| 2026-05-03 21:55 | 49.76615 | 2.36559 | 22900 ft | 423 kts | 353° |
| 2026-05-03 21:55 | 49.79526 | 2.36001 | 23397 ft | 421 kts | 342° |
| 2026-05-03 21:55 | 49.82322 | 2.34679 | 23816 ft | 419 kts | 334° |
| 2026-05-03 21:55 | 49.85059 | 2.33084 | 24209 ft | 422 kts | 334° |
| 2026-05-03 21:56 | 49.87826 | 2.31482 | 24589 ft | 426 kts | 334° |
| 2026-05-03 21:56 | 49.90616 | 2.29875 | 24974 ft | 429 kts | 334° |
| 2026-05-03 21:56 | 49.93426 | 2.28257 | 25349 ft | 432 kts | 334° |
| 2026-05-03 21:56 | 49.96254 | 2.26623 | 25717 ft | 435 kts | 334° |
| 2026-05-03 21:57 | 49.99072 | 2.24988 | 26077 ft | 438 kts | 334° |
| 2026-05-03 21:57 | 50.01974 | 2.23300 | 26443 ft | 441 kts | 334° |
| 2026-05-03 21:57 | 50.04824 | 2.21640 | 26769 ft | 444 kts | 333° |
| 2026-05-03 21:57 | 50.07731 | 2.19944 | 27115 ft | 447 kts | 333° |
| 2026-05-03 21:58 | 50.10649 | 2.18238 | 27459 ft | 450 kts | 333° |
| 2026-05-03 21:58 | 50.13588 | 2.16518 | 27804 ft | 452 kts | 333° |
| 2026-05-03 21:58 | 50.16539 | 2.14787 | 28143 ft | 455 kts | 333° |
| 2026-05-03 21:58 | 50.19515 | 2.13042 | 28480 ft | 457 kts | 333° |
| 2026-05-03 21:59 | 50.22498 | 2.11291 | 28808 ft | 460 kts | 333° |
| 2026-05-03 21:59 | 50.25501 | 2.09530 | 29129 ft | 462 kts | 333° |
| 2026-05-03 21:59 | 50.28521 | 2.07757 | 29449 ft | 464 kts | 333° |
| 2026-05-03 21:59 | 50.31553 | 2.05973 | 29760 ft | 467 kts | 333° |
| 2026-05-03 22:00 | 50.34587 | 2.04138 | 30040 ft | 466 kts | 329° |
| 2026-05-03 22:00 | 50.37437 | 2.01789 | 30295 ft | 460 kts | 320° |
| 2026-05-03 22:00 | 50.39992 | 1.98849 | 30544 ft | 453 kts | 312° |
| 2026-05-03 22:00 | 50.42342 | 1.95637 | 30789 ft | 454 kts | 311° |
| 2026-05-03 22:01 | 50.44736 | 1.92366 | 31027 ft | 456 kts | 312° |
| 2026-05-03 22:01 | 50.47131 | 1.89098 | 31277 ft | 457 kts | 312° |
| 2026-05-03 22:01 | 50.49529 | 1.85829 | 31611 ft | 456 kts | 312° |
| 2026-05-03 22:01 | 50.51926 | 1.82557 | 31940 ft | 455 kts | 312° |
| 2026-05-03 22:02 | 50.54319 | 1.79289 | 32259 ft | 455 kts | 312° |
| 2026-05-03 22:02 | 50.56702 | 1.76027 | 32564 ft | 455 kts | 312° |
| 2026-05-03 22:02 | 50.59089 | 1.72755 | 32895 ft | 454 kts | 312° |
| 2026-05-03 22:02 | 50.61442 | 1.69515 | 33213 ft | 454 kts | 311° |
| 2026-05-03 22:03 | 50.63817 | 1.66232 | 33505 ft | 453 kts | 312° |
| 2026-05-03 22:03 | 50.66186 | 1.62959 | 33815 ft | 453 kts | 312° |
| 2026-05-03 22:03 | 50.68550 | 1.59692 | 33936 ft | 450 kts | 312° |
| 2026-05-03 22:03 | 50.70892 | 1.56459 | 33949 ft | 443 kts | 312° |
| 2026-05-03 22:04 | 50.75506 | 1.50069 | 33946 ft | 440 kts | 311° |
| 2026-05-03 22:04 | 50.80097 | 1.43672 | 33945 ft | 440 kts | 312° |
| 2026-05-03 22:05 | 50.84684 | 1.37276 | 33949 ft | 440 kts | 312° |
| 2026-05-03 22:05 | 50.89270 | 1.30873 | 33951 ft | 440 kts | 312° |
| 2026-05-03 22:06 | 50.93861 | 1.24455 | 33948 ft | 440 kts | 312° |
| 2026-05-03 22:06 | 50.98444 | 1.18017 | 33949 ft | 440 kts | 312° |
| 2026-05-03 22:07 | 51.02991 | 1.11604 | 33949 ft | 440 kts | 312° |
| 2026-05-03 22:07 | 51.07542 | 1.05127 | 33939 ft | 439 kts | 311° |
| 2026-05-03 22:08 | 51.11937 | 0.98414 | 33934 ft | 437 kts | 309° |
| 2026-05-03 22:08 | 51.16262 | 0.91556 | 33930 ft | 437 kts | 309° |
| 2026-05-03 22:09 | 51.20566 | 0.84779 | 33926 ft | 438 kts | 310° |
| 2026-05-03 22:10 | 51.27101 | 0.74590 | 33966 ft | 438 kts | 310° |
| 2026-05-03 22:10 | 51.31460 | 0.67776 | 33972 ft | 438 kts | 310° |
| 2026-05-03 22:11 | 51.35067 | 0.62114 | 33966 ft | 438 kts | 310° |
| 2026-05-03 22:11 | 51.39422 | 0.55248 | 33906 ft | 438 kts | 310° |
| 2026-05-03 22:12 | 51.43434 | 0.48894 | 33903 ft | 438 kts | 310° |
| 2026-05-03 22:12 | 51.47771 | 0.42017 | 33905 ft | 438 kts | 310° |
| 2026-05-03 22:13 | 51.52111 | 0.35135 | 33918 ft | 439 kts | 310° |
| 2026-05-03 22:13 | 51.56451 | 0.28231 | 33924 ft | 439 kts | 310° |
| 2026-05-03 22:14 | 51.59860 | 0.22781 | 33929 ft | 439 kts | 310° |
| 2026-05-03 22:14 | 51.63977 | 0.16177 | 33923 ft | 439 kts | 310° |
| 2026-05-03 22:15 | 51.68279 | 0.09202 | 33927 ft | 439 kts | 309° |
| 2026-05-03 22:15 | 51.72536 | 0.02203 | 33922 ft | 439 kts | 309° |
| 2026-05-03 22:16 | 51.76803 | -0.04856 | 33928 ft | 440 kts | 309° |
| 2026-05-03 22:16 | 51.81087 | -0.11938 | 33928 ft | 440 kts | 309° |
| 2026-05-03 22:17 | 51.85369 | -0.19023 | 33893 ft | 441 kts | 309° |
| 2026-05-03 22:17 | 51.87502 | -0.22558 | 33623 ft | 435 kts | 309° |
| 2026-05-03 22:17 | 51.89611 | -0.26061 | 33342 ft | 431 kts | 309° |
| 2026-05-03 22:17 | 51.91673 | -0.29497 | 33077 ft | 429 kts | 309° |
| 2026-05-03 22:18 | 51.93737 | -0.32940 | 32808 ft | 426 kts | 309° |
| 2026-05-03 22:18 | 51.95807 | -0.36397 | 32539 ft | 424 kts | 309° |
| 2026-05-03 22:18 | 51.97854 | -0.39822 | 32277 ft | 422 kts | 309° |
| 2026-05-03 22:18 | 51.99763 | -0.43019 | 32036 ft | 420 kts | 309° |
| 2026-05-03 22:19 | 52.01800 | -0.46432 | 31784 ft | 418 kts | 309° |
| 2026-05-03 22:19 | 52.03819 | -0.49821 | 31519 ft | 417 kts | 309° |
| 2026-05-03 22:19 | 52.05829 | -0.53203 | 31269 ft | 415 kts | 308° |
| 2026-05-03 22:19 | 52.07830 | -0.56578 | 31019 ft | 413 kts | 308° |
| 2026-05-03 22:20 | 52.09816 | -0.59931 | 30772 ft | 411 kts | 308° |
| 2026-05-03 22:20 | 52.11775 | -0.63237 | 30526 ft | 410 kts | 308° |
| 2026-05-03 22:20 | 52.13753 | -0.66575 | 30282 ft | 408 kts | 308° |
| 2026-05-03 22:20 | 52.15721 | -0.69899 | 30046 ft | 407 kts | 308° |
| 2026-05-03 22:21 | 52.17679 | -0.73215 | 29765 ft | 405 kts | 308° |
| 2026-05-03 22:21 | 52.19627 | -0.76524 | 29476 ft | 404 kts | 308° |
| 2026-05-03 22:21 | 52.21572 | -0.79828 | 29196 ft | 402 kts | 308° |
| 2026-05-03 22:21 | 52.23501 | -0.83095 | 28839 ft | 397 kts | 310° |
| 2026-05-03 22:22 | 52.25612 | -0.86013 | 28438 ft | 398 kts | 320° |
| 2026-05-03 22:22 | 52.27817 | -0.88235 | 28113 ft | 395 kts | 325° |
| 2026-05-03 22:22 | 52.30179 | -0.90537 | 27624 ft | 393 kts | 324° |
| 2026-05-03 22:23 | 52.32504 | -0.92856 | 27218 ft | 389 kts | 324° |
| 2026-05-03 22:23 | 52.34771 | -0.95144 | 26815 ft | 386 kts | 324° |
| 2026-05-03 22:23 | 52.37049 | -0.97447 | 26401 ft | 383 kts | 324° |
| 2026-05-03 22:23 | 52.39306 | -0.99726 | 25987 ft | 380 kts | 324° |
| 2026-05-03 22:24 | 52.41550 | -1.01984 | 25564 ft | 377 kts | 324° |
| 2026-05-03 22:24 | 52.43785 | -1.04226 | 25132 ft | 375 kts | 324° |
| 2026-05-03 22:24 | 52.46005 | -1.06451 | 24696 ft | 373 kts | 325° |
| 2026-05-03 22:24 | 52.48215 | -1.08665 | 24263 ft | 372 kts | 325° |
| 2026-05-03 22:25 | 52.50416 | -1.10870 | 23825 ft | 370 kts | 325° |
| 2026-05-03 22:25 | 52.52608 | -1.13074 | 23352 ft | 369 kts | 325° |
| 2026-05-03 22:25 | 52.54793 | -1.15278 | 22887 ft | 366 kts | 325° |
| 2026-05-03 22:25 | 52.56815 | -1.17317 | 22488 ft | 363 kts | 325° |
| 2026-05-03 22:26 | 52.58989 | -1.19509 | 22060 ft | 361 kts | 325° |
| 2026-05-03 22:26 | 52.61122 | -1.21663 | 21639 ft | 358 kts | 325° |
| 2026-05-03 22:26 | 52.63215 | -1.23775 | 21234 ft | 356 kts | 325° |
| 2026-05-03 22:26 | 52.65321 | -1.25904 | 20826 ft | 354 kts | 325° |
| 2026-05-03 22:27 | 52.67412 | -1.28023 | 20418 ft | 352 kts | 325° |
| 2026-05-03 22:27 | 52.69490 | -1.30131 | 20010 ft | 350 kts | 325° |
| 2026-05-03 22:27 | 52.71563 | -1.32237 | 19588 ft | 350 kts | 325° |
| 2026-05-03 22:27 | 52.73635 | -1.34349 | 19209 ft | 350 kts | 325° |
| 2026-05-03 22:28 | 52.75706 | -1.36465 | 18770 ft | 350 kts | 325° |
| 2026-05-03 22:28 | 52.77783 | -1.38592 | 18330 ft | 351 kts | 325° |
| 2026-05-03 22:28 | 52.79859 | -1.40713 | 17846 ft | 351 kts | 325° |
| 2026-05-03 22:28 | 52.81933 | -1.42824 | 17419 ft | 349 kts | 325° |
| 2026-05-03 22:29 | 52.83993 | -1.44929 | 17124 ft | 344 kts | 325° |
| 2026-05-03 22:29 | 52.85998 | -1.46982 | 16985 ft | 333 kts | 325° |
| 2026-05-03 22:29 | 52.87943 | -1.48975 | 16848 ft | 324 kts | 325° |
| 2026-05-03 22:29 | 52.89841 | -1.50926 | 16603 ft | 319 kts | 325° |
| 2026-05-03 22:30 | 52.91719 | -1.52858 | 16294 ft | 316 kts | 325° |
| 2026-05-03 22:30 | 52.93584 | -1.54781 | 15919 ft | 315 kts | 325° |
| 2026-05-03 22:30 | 52.95416 | -1.56672 | 15467 ft | 313 kts | 325° |
| 2026-05-03 22:30 | 52.97256 | -1.58569 | 15016 ft | 310 kts | 325° |
| 2026-05-03 22:31 | 52.99089 | -1.60460 | 14580 ft | 308 kts | 325° |
| 2026-05-03 22:31 | 53.00901 | -1.62334 | 14140 ft | 306 kts | 325° |
| 2026-05-03 22:31 | 53.02704 | -1.64199 | 13702 ft | 304 kts | 326° |
| 2026-05-03 22:31 | 53.04480 | -1.66053 | 13225 ft | 301 kts | 322° |
| 2026-05-03 22:32 | 53.06062 | -1.68290 | 12751 ft | 298 kts | 310° |
| 2026-05-03 22:32 | 53.07413 | -1.70905 | 12250 ft | 298 kts | 307° |
| 2026-05-03 22:32 | 53.08702 | -1.73415 | 11751 ft | 293 kts | 308° |
| 2026-05-03 22:32 | 53.10015 | -1.75957 | 11237 ft | 290 kts | 308° |
| 2026-05-03 22:33 | 53.11323 | -1.78482 | 10818 ft | 288 kts | 308° |
| 2026-05-03 22:33 | 53.12633 | -1.81009 | 10442 ft | 287 kts | 308° |
| 2026-05-03 22:33 | 53.13935 | -1.83531 | 10084 ft | 286 kts | 308° |
| 2026-05-03 22:33 | 53.15230 | -1.86051 | 9719 ft | 287 kts | 308° |
| 2026-05-03 22:34 | 53.16527 | -1.88583 | 9350 ft | 286 kts | 308° |
| 2026-05-03 22:34 | 53.17813 | -1.91094 | 8980 ft | 284 kts | 308° |
| 2026-05-03 22:34 | 53.19092 | -1.93589 | 8631 ft | 282 kts | 309° |
| 2026-05-03 22:34 | 53.20364 | -1.96071 | 8281 ft | 280 kts | 309° |
| 2026-05-03 22:35 | 53.21602 | -1.98491 | 8179 ft | 278 kts | 309° |
| 2026-05-03 22:35 | 53.22827 | -2.01007 | 7872 ft | 277 kts | 301° |
| 2026-05-03 22:35 | 53.23459 | -2.03967 | 7575 ft | 270 kts | 272° |
| 2026-05-03 22:35 | 53.23383 | -2.07062 | 7276 ft | 264 kts | 262° |
| 2026-05-03 22:36 | 53.23163 | -2.10085 | 6907 ft | 263 kts | 261° |
| 2026-05-03 22:36 | 53.22920 | -2.13112 | 6495 ft | 264 kts | 261° |
| 2026-05-03 22:36 | 53.22668 | -2.16158 | 6070 ft | 264 kts | 261° |
| 2026-05-03 22:36 | 53.22407 | -2.19192 | 5612 ft | 265 kts | 260° |
| 2026-05-03 22:37 | 53.22138 | -2.22235 | 5181 ft | 265 kts | 260° |
| 2026-05-03 22:37 | 53.21867 | -2.25231 | 4991 ft | 255 kts | 260° |
| 2026-05-03 22:37 | 53.21607 | -2.28071 | 4992 ft | 244 kts | 260° |
| 2026-05-03 22:37 | 53.21351 | -2.30855 | 4993 ft | 243 kts | 260° |
| 2026-05-03 22:38 | 53.21094 | -2.33640 | 4992 ft | 241 kts | 260° |
| 2026-05-03 22:38 | 53.20845 | -2.36342 | 4765 ft | 235 kts | 261° |
| 2026-05-03 22:38 | 53.20587 | -2.39063 | 4297 ft | 240 kts | 261° |
| 2026-05-03 22:38 | 53.20311 | -2.41845 | 3828 ft | 245 kts | 262° |
| 2026-05-03 22:39 | 53.20433 | -2.44619 | 3372 ft | 245 kts | 292° |
| 2026-05-03 22:39 | 53.21369 | -2.46946 | 3032 ft | 238 kts | 317° |
| 2026-05-03 22:39 | 53.22619 | -2.48559 | 2984 ft | 217 kts | 342° |
| 2026-05-03 22:39 | 53.24038 | -2.48818 | 3008 ft | 202 kts | 13° |
| 2026-05-03 22:40 | 53.25268 | -2.48002 | 2997 ft | 183 kts | 38° |
| 2026-05-03 22:40 | 53.26122 | -2.46557 | 2973 ft | 168 kts | 52° |
| 2026-05-03 22:40 | 53.26844 | -2.45072 | 2789 ft | 163 kts | 52° |
| 2026-05-03 22:40 | 53.27548 | -2.43625 | 2566 ft | 158 kts | 52° |
| 2026-05-03 22:41 | 53.28234 | -2.42216 | 2365 ft | 155 kts | 51° |
| 2026-05-03 22:41 | 53.28911 | -2.40824 | 2160 ft | 154 kts | 51° |
| 2026-05-03 22:41 | 53.29580 | -2.39449 | 1953 ft | 152 kts | 51° |
| 2026-05-03 22:41 | 53.30212 | -2.38147 | 1771 ft | 138 kts | 50° |
| 2026-05-03 22:42 | 53.30809 | -2.36918 | 1572 ft | 132 kts | 51° |
| 2026-05-03 22:42 | 53.31383 | -2.35736 | 1393 ft | 133 kts | 51° |
| 2026-05-03 22:42 | 53.31966 | -2.34534 | 1179 ft | 133 kts | 50° |
| 2026-05-03 22:42 | 53.32558 | -2.33313 | 984 ft | 134 kts | 50° |
| 2026-05-03 22:43 | 53.33142 | -2.32103 | 757 ft | 136 kts | 51° |
| 2026-05-03 22:43 | 53.33744 | -2.30870 | 628 ft | 148 kts | 51° |
| 2026-05-03 22:43 | 53.34454 | -2.29459 | 436 ft | 158 kts | 52° |
| 2026-05-03 22:43 | 53.35141 | -2.28082 | 733 ft | 165 kts | 50° |
| 2026-05-03 22:44 | 53.35876 | -2.26596 | 1716 ft | 169 kts | 50° |
| 2026-05-03 22:44 | 53.36669 | -2.24980 | 2080 ft | 192 kts | 50° |
| 2026-05-03 22:44 | 53.37563 | -2.23174 | 2631 ft | 206 kts | 51° |
| 2026-05-03 22:44 | 53.38507 | -2.21307 | 2934 ft | 210 kts | 50° |
| 2026-05-03 22:45 | 53.39508 | -2.19537 | 3004 ft | 210 kts | 36° |
| 2026-05-03 22:45 | 53.40888 | -2.18783 | 3009 ft | 215 kts | 1° |
| 2026-05-03 22:45 | 53.42318 | -2.19520 | 3013 ft | 222 kts | 329° |
| 2026-05-03 22:45 | 53.43529 | -2.21133 | 3170 ft | 223 kts | 321° |
| 2026-05-03 22:46 | 53.44679 | -2.22872 | 3442 ft | 226 kts | 320° |
| 2026-05-03 22:46 | 53.45847 | -2.24704 | 3717 ft | 229 kts | 313° |
| 2026-05-03 22:46 | 53.46566 | -2.27048 | 3941 ft | 234 kts | 281° |
| 2026-05-03 22:46 | 53.46445 | -2.29743 | 3997 ft | 233 kts | 246° |
| 2026-05-03 22:47 | 53.45623 | -2.32071 | 3999 ft | 232 kts | 232° |
| 2026-05-03 22:47 | 53.44645 | -2.34233 | 4001 ft | 232 kts | 231° |
| 2026-05-03 22:47 | 53.43653 | -2.36357 | 4007 ft | 233 kts | 230° |
| 2026-05-03 22:47 | 53.42648 | -2.38494 | 4008 ft | 232 kts | 230° |
| 2026-05-03 22:48 | 53.41645 | -2.40616 | 4011 ft | 232 kts | 230° |
| 2026-05-03 22:48 | 53.40656 | -2.42705 | 4009 ft | 232 kts | 230° |
| 2026-05-03 22:48 | 53.39650 | -2.44825 | 4005 ft | 231 kts | 230° |
| 2026-05-03 22:48 | 53.38588 | -2.46837 | 4003 ft | 230 kts | 215° |
| 2026-05-03 22:49 | 53.37207 | -2.48113 | 3997 ft | 222 kts | 202° |
| 2026-05-03 22:49 | 53.35817 | -2.49108 | 4001 ft | 213 kts | 200° |
| 2026-05-03 22:49 | 53.34496 | -2.50022 | 3999 ft | 197 kts | 200° |
| 2026-05-03 22:49 | 53.33276 | -2.50866 | 3997 ft | 186 kts | 200° |
| 2026-05-03 22:50 | 53.32073 | -2.51697 | 3644 ft | 192 kts | 200° |
| 2026-05-03 22:50 | 53.30770 | -2.52588 | 3071 ft | 213 kts | 200° |
| 2026-05-03 22:50 | 53.29306 | -2.53263 | 2978 ft | 221 kts | 176° |
| 2026-05-03 22:50 | 53.27907 | -2.52588 | 2982 ft | 197 kts | 140° |
| 2026-05-03 22:51 | 53.27130 | -2.50923 | 2996 ft | 180 kts | 111° |
| 2026-05-03 22:51 | 53.26960 | -2.48922 | 3020 ft | 170 kts | 84° |
| 2026-05-03 22:51 | 53.27087 | -2.46994 | 3034 ft | 168 kts | 81° |
| 2026-05-03 22:51 | 53.27255 | -2.45056 | 3004 ft | 168 kts | 79° |
| 2026-05-03 22:52 | 53.27698 | -2.43300 | 2718 ft | 164 kts | 52° |
| 2026-05-03 22:52 | 53.28423 | -2.41815 | 2332 ft | 164 kts | 50° |
| 2026-05-03 22:52 | 53.29141 | -2.40346 | 1882 ft | 162 kts | 50° |
| 2026-05-03 22:52 | 53.29830 | -2.38931 | 1615 ft | 147 kts | 50° |
| 2026-05-03 22:53 | 53.30464 | -2.37627 | 1242 ft | 144 kts | 50° |
| 2026-05-03 22:53 | 53.31086 | -2.36347 | 1007 ft | 141 kts | 50° |
| 2026-05-03 22:53 | 53.31705 | -2.35072 | 1010 ft | 143 kts | 50° |
| 2026-05-03 22:53 | 53.32330 | -2.33784 | 997 ft | 143 kts | 50° |
| 2026-05-03 22:54 | 53.32954 | -2.32496 | 828 ft | 142 kts | 51° |
| 2026-05-03 22:54 | 53.33577 | -2.31215 | 610 ft | 141 kts | 51° |
| 2026-05-03 22:54 | 53.34195 | -2.29951 | 478 ft | 141 kts | 50° |
| 2026-05-03 22:54 | 53.34807 | -2.28679 | 271 ft | 137 kts | 52° |
| 2026-05-03 22:55 | 53.35392 | -2.27471 | 264 ft | 120 kts | 48° |
| 2026-05-03 22:55 | 53.35846 | -2.26535 | 255 ft | 79 kts | 52° |
| 2026-05-03 22:55 | 53.36088 | -2.26032 | 256 ft | 38 kts | 50° |